Time;durP1;ratioP1;P1;durP2;ratioP2;P2;SDS_P1;SDS_P2;PMS_P1;PMS_P2;Temp;Humidity;BMP_temperature;BMP_pressure;BME280_temperature;BME280_humidity;BME280_pressure;Samples;Min_cycle;Max_cycle;Signal;HPM_P1;HPM_P2
2023/11/23 00:01:36;;;;;;;13.55;3.95;;;;;;;8.94;100.00;102424.78;5030506;28;20044;-87
2023/11/23 00:04:02;;;;;;;6.30;3.85;;;;;;;8.97;100.00;102426.53;5035203;28;20048;-87
2023/11/23 00:06:27;;;;;;;5.50;3.38;;;;;;;8.98;100.00;102434.31;5025159;28;20025;-87
2023/11/23 00:08:52;;;;;;;8.43;3.30;;;;;;;9.00;100.00;102423.88;5034114;28;20504;-87
2023/11/23 00:11:18;;;;;;;8.48;3.50;;;;;;;9.00;100.00;102426.47;5031282;28;20045;-88
2023/11/23 00:13:43;;;;;;;4.97;3.92;;;;;;;9.02;100.00;102423.00;5026140;28;20104;-87
2023/11/23 00:16:09;;;;;;;11.95;3.90;;;;;;;9.05;100.00;102416.00;5035386;28;20049;-87
2023/11/23 00:18:34;;;;;;;4.90;3.58;;;;;;;9.05;100.00;102414.25;5031425;28;20041;-87
2023/11/23 00:20:59;;;;;;;4.93;3.17;;;;;;;9.08;100.00;102408.09;5019879;28;20041;-88
2023/11/23 00:23:25;;;;;;;3.95;3.15;;;;;;;9.09;100.00;102410.72;5027246;28;20395;-88
2023/11/23 00:25:50;;;;;;;15.00;3.88;;;;;;;9.11;100.00;102413.31;5033599;28;20071;-87
2023/11/23 00:28:15;;;;;;;6.55;2.95;;;;;;;9.12;100.00;102408.06;5036502;28;20033;-87
2023/11/23 00:30:40;;;;;;;14.15;4.72;;;;;;;9.14;100.00;102410.69;5035709;28;20041;-88
2023/11/23 00:33:06;;;;;;;11.07;3.90;;;;;;;9.15;100.00;102402.84;5035379;28;20041;-87
2023/11/23 00:35:31;;;;;;;16.33;3.85;;;;;;;9.16;100.00;102401.06;5021234;28;20034;-87
2023/11/23 00:37:58;;;;;;;14.50;4.10;;;;;;;9.17;100.00;102395.84;5027920;28;20456;-88
2023/11/23 00:40:23;;;;;;;10.70;3.70;;;;;;;9.18;100.00;102397.56;5034550;28;20052;-88
2023/11/23 00:42:49;;;;;;;12.40;3.83;;;;;;;9.21;100.00;102401.91;5035891;28;20037;-88
2023/11/23 00:45:15;;;;;;;4.95;3.10;;;;;;;9.21;100.00;102396.69;5035465;28;20051;-88
2023/11/23 00:47:43;;;;;;;11.90;4.13;;;;;;;9.22;100.00;102404.50;5021068;28;20042;-88
2023/11/23 00:50:09;;;;;;;8.30;4.03;;;;;;;9.27;100.00;102395.75;5032643;28;20025;-88
2023/11/23 00:52:34;;;;;;;7.85;4.13;;;;;;;9.27;100.00;102386.16;5021791;28;20225;-87
2023/11/23 00:55:00;;;;;;;9.68;3.42;;;;;;;9.30;100.00;102385.25;5030425;28;20076;-88
2023/11/23 00:57:25;;;;;;;3.25;2.80;;;;;;;9.30;100.00;102388.72;5034829;28;20041;-88
2023/11/23 00:59:51;;;;;;;10.73;4.18;;;;;;;9.30;100.00;102380.88;5025877;28;20433;-88
2023/11/23 01:02:16;;;;;;;11.30;5.38;;;;;;;9.29;100.00;102371.31;5026987;28;20061;-87
2023/11/23 01:04:42;;;;;;;13.00;3.50;;;;;;;9.29;100.00;102376.53;5021098;28;20045;-88
2023/11/23 01:07:08;;;;;;;8.40;3.20;;;;;;;9.30;100.00;102383.50;5032497;28;20037;-88
2023/11/23 01:09:33;;;;;;;7.45;3.30;;;;;;;9.31;100.00;102380.00;5020927;28;20108;-88
2023/11/23 01:11:58;;;;;;;6.18;3.20;;;;;;;9.31;100.00;102374.75;5035279;28;20056;-88
2023/11/23 01:14:24;;;;;;;9.32;3.28;;;;;;;9.33;100.00;102379.97;5020953;28;20036;-88
2023/11/23 01:16:49;;;;;;;5.07;2.92;;;;;;;9.32;100.00;102373.91;5035063;28;20059;-88
2023/11/23 01:19:14;;;;;;;7.45;2.67;;;;;;;9.33;100.00;102374.75;5033179;28;20283;-88
2023/11/23 01:21:40;;;;;;;5.60;3.38;;;;;;;9.31;100.00;102366.91;5025970;28;20038;-87
2023/11/23 01:24:05;;;;;;;3.67;2.80;;;;;;;9.31;100.00;102376.53;5016454;28;20357;-88
2023/11/23 01:26:31;;;;;;;13.18;3.60;;;;;;;9.29;100.00;102373.06;5018356;28;20045;-88
2023/11/23 01:28:56;;;;;;;11.30;3.67;;;;;;;9.27;100.00;102370.47;5016242;28;20068;-87
2023/11/23 01:31:22;;;;;;;4.47;3.03;;;;;;;9.28;100.00;102369.59;5028977;28;20101;-88
2023/11/23 01:33:47;;;;;;;3.78;2.42;;;;;;;9.27;100.00;102360.00;5023591;28;20337;-87
2023/11/23 01:36:12;;;;;;;7.63;2.58;;;;;;;9.28;100.00;102361.75;5030784;28;20030;-87
2023/11/23 01:38:38;;;;;;;4.38;3.08;;;;;;;9.25;100.00;102361.78;5029505;28;20061;-88
2023/11/23 01:41:03;;;;;;;5.18;2.95;;;;;;;9.26;100.00;102357.41;5024880;28;20621;-88
2023/11/23 01:43:31;;;;;;;6.07;2.80;;;;;;;9.25;100.00;102359.16;5015262;28;20348;-87
2023/11/23 01:45:56;;;;;;;4.05;2.28;;;;;;;9.27;100.00;102360.00;5016894;28;20038;-87
2023/11/23 01:48:22;;;;;;;8.30;2.70;;;;;;;9.27;100.00;102356.53;5015349;28;20042;-87
2023/11/23 01:50:49;;;;;;;8.43;2.70;;;;;;;9.25;100.00;102359.16;5031761;28;20378;-87
2023/11/23 01:53:16;;;;;;;4.57;2.65;;;;;;;9.26;100.00;102360.00;5014987;28;20049;-88
2023/11/23 01:55:42;;;;;;;8.25;2.72;;;;;;;9.23;100.00;102366.16;5025299;28;20128;-87
2023/11/23 01:58:10;;;;;;;5.93;2.65;;;;;;;9.23;100.00;102361.78;5033663;28;20352;-88
2023/11/23 02:00:37;;;;;;;8.20;2.77;;;;;;;9.24;100.00;102367.91;5028964;28;20147;-87
2023/11/23 02:03:02;;;;;;;8.48;2.53;;;;;;;9.25;100.00;102359.16;5029115;28;20337;-87
2023/11/23 02:05:28;;;;;;;2.95;2.03;;;;;;;9.25;100.00;102368.75;5015315;28;20076;-88
2023/11/23 02:07:53;;;;;;;2.55;2.20;;;;;;;9.25;100.00;102372.22;5014741;28;20041;-87
2023/11/23 02:10:19;;;;;;;4.13;2.13;;;;;;;9.26;100.00;102373.97;5021841;28;20066;-87
2023/11/23 02:12:48;;;;;;;7.55;2.30;;;;;;;9.27;100.00;102375.69;5032573;28;20036;-87
2023/11/23 02:15:13;;;;;;;4.47;2.30;;;;;;;9.24;100.00;102370.50;5031014;28;20107;-87
2023/11/23 02:17:39;;;;;;;3.92;2.30;;;;;;;9.25;100.00;102363.53;5034350;28;20256;-88
2023/11/23 02:20:08;;;;;;;4.78;2.05;;;;;;;9.25;100.00;102366.13;5031815;28;20026;-87
2023/11/23 02:22:34;;;;;;;2.47;2.17;;;;;;;9.23;100.00;102374.84;5033875;28;20045;-87
2023/11/23 02:25:00;;;;;;;7.13;3.35;;;;;;;9.22;100.00;102373.13;5029828;28;20427;-87
2023/11/23 02:27:25;;;;;;;7.55;3.00;;;;;;;9.18;100.00;102365.31;5033965;28;20037;-87
2023/11/23 02:29:50;;;;;;;7.00;2.80;;;;;;;9.18;100.00;102360.97;5029385;28;20059;-88
2023/11/23 02:32:17;;;;;;;4.78;2.00;;;;;;;9.18;100.00;102360.09;5024437;28;20041;-88
2023/11/23 02:34:42;;;;;;;3.83;2.00;;;;;;;9.18;100.00;102355.72;5019166;28;20037;-87
2023/11/23 02:37:08;;;;;;;4.05;2.00;;;;;;;9.19;100.00;102356.63;5034094;28;20037;-88
2023/11/23 02:39:33;;;;;;;3.47;2.03;;;;;;;9.18;100.00;102350.50;5030436;28;20225;-87
2023/11/23 02:41:59;;;;;;;3.58;2.00;;;;;;;9.21;100.00;102362.69;5028028;28;20093;-87
2023/11/23 02:44:25;;;;;;;2.08;1.83;;;;;;;9.20;100.00;102359.22;5029206;28;20041;-88
2023/11/23 02:46:51;;;;;;;2.50;2.30;;;;;;;9.21;100.00;102360.06;5033526;28;20037;-87
2023/11/23 02:49:18;;;;;;;4.53;2.33;;;;;;;9.22;100.00;102359.19;5031031;28;20041;-88
2023/11/23 02:51:43;;;;;;;2.33;2.10;;;;;;;9.22;100.00;102353.94;5022365;28;20050;-88
2023/11/23 02:54:09;;;;;;;7.10;2.95;;;;;;;9.22;100.00;102357.44;5015568;28;20069;-88
2023/11/23 02:56:36;;;;;;;3.10;2.60;;;;;;;9.24;100.00;102360.06;5030282;28;20057;-87
2023/11/23 02:59:01;;;;;;;3.75;2.60;;;;;;;9.24;100.00;102354.81;5034155;28;20033;-87
2023/11/23 03:01:27;;;;;;;3.67;2.45;;;;;;;9.25;100.00;102356.53;5035583;28;20395;-87
2023/11/23 03:03:55;;;;;;;5.95;2.40;;;;;;;9.25;100.00;102353.94;5038297;28;20041;-87
2023/11/23 03:06:21;;;;;;;3.53;1.92;;;;;;;9.26;100.00;102357.41;5037870;28;20208;-87
2023/11/23 03:08:46;;;;;;;2.60;1.83;;;;;;;9.26;100.00;102352.16;5037919;28;20037;-88
2023/11/23 03:11:21;;;;;;;2.40;2.17;;;;;;;9.27;100.00;102364.38;5025208;28;20376;-88
2023/11/23 03:13:48;;;;;;;6.60;3.13;;;;;;;9.27;100.00;102354.78;5017413;28;20072;-88
2023/11/23 03:16:13;;;;;;;4.30;2.40;;;;;;;9.28;100.00;102360.84;5027359;28;20041;-88
2023/11/23 03:18:39;;;;;;;3.70;2.33;;;;;;;9.28;100.00;102360.84;5037359;28;20240;-88
2023/11/23 03:21:04;;;;;;;4.07;2.50;;;;;;;9.31;100.00;102364.31;5032482;28;20096;-88
2023/11/23 03:23:30;;;;;;;8.98;3.15;;;;;;;9.36;100.00;102361.66;5034478;28;20048;-87
2023/11/23 03:25:56;;;;;;;6.18;2.17;;;;;;;9.36;100.00;102357.28;5032070;28;20018;-87
2023/11/23 03:28:21;;;;;;;6.32;2.40;;;;;;;9.40;100.00;102358.13;5018033;28;20148;-87
2023/11/23 03:30:46;;;;;;;6.32;2.72;;;;;;;9.39;100.00;102352.03;5018911;28;20391;-87
2023/11/23 03:33:12;;;;;;;6.55;2.35;;;;;;;9.42;100.00;102353.72;5018050;28;20225;-87
2023/11/23 03:35:38;;;;;;;8.98;2.63;;;;;;;9.42;100.00;102348.50;5018787;28;20108;-87
2023/11/23 03:38:04;;;;;;;9.10;2.40;;;;;;;9.43;100.00;102344.16;5017908;28;20032;-87
2023/11/23 03:40:29;;;;;;;8.73;2.40;;;;;;;9.40;100.00;102335.47;5018180;28;20116;-87
2023/11/23 03:42:55;;;;;;;6.45;2.42;;;;;;;9.43;100.00;102337.16;5036927;28;20041;-87
2023/11/23 03:45:22;;;;;;;2.55;1.80;;;;;;;9.51;100.00;102340.53;5037015;28;20029;-87
2023/11/23 03:47:48;;;;;;;4.03;2.00;;;;;;;9.47;100.00;102341.47;5026371;28;20244;-87
2023/11/23 03:50:14;;;;;;;2.17;1.77;;;;;;;9.45;100.00;102343.25;5034884;28;20151;-87
2023/11/23 03:52:40;;;;;;;3.65;2.20;;;;;;;9.41;100.00;102342.41;5030954;28;20041;-87
2023/11/23 03:55:06;;;;;;;10.80;2.67;;;;;;;9.37;100.00;102343.34;5034015;28;20056;-87
2023/11/23 03:57:31;;;;;;;5.47;2.83;;;;;;;9.35;100.00;102342.50;5024717;28;20239;-87
2023/11/23 03:59:56;;;;;;;3.78;2.38;;;;;;;9.35;100.00;102341.59;5015642;28;20059;-87
2023/11/23 04:02:22;;;;;;;6.30;2.08;;;;;;;9.33;100.00;102338.16;5024425;28;20048;-87
2023/11/23 04:04:47;;;;;;;3.08;1.85;;;;;;;9.32;100.00;102344.28;5023863;28;20041;-87
2023/11/23 04:07:13;;;;;;;6.82;2.40;;;;;;;9.29;100.00;102347.78;5029902;28;20045;-87
2023/11/23 04:09:38;;;;;;;3.58;2.15;;;;;;;9.28;100.00;102339.94;5017022;28;20041;-87
2023/11/23 04:12:04;;;;;;;9.20;2.63;;;;;;;9.25;100.00;102326.94;5026688;28;20037;-87
2023/11/23 04:14:30;;;;;;;9.25;2.63;;;;;;;9.22;100.00;102323.47;5024425;28;20051;-87
2023/11/23 04:16:56;;;;;;;8.45;2.47;;;;;;;9.25;100.00;102337.38;5028556;28;20049;-87
2023/11/23 04:19:22;;;;;;;5.30;2.50;;;;;;;9.23;100.00;102325.19;5030255;28;20152;-87
2023/11/23 04:21:48;;;;;;;9.63;2.88;;;;;;;9.21;100.00;102337.41;5024529;28;20076;-87
2023/11/23 04:24:14;;;;;;;8.15;2.45;;;;;;;9.22;100.00;102338.25;5017674;28;20225;-87
2023/11/23 04:26:42;;;;;;;9.55;2.60;;;;;;;9.21;100.00;102336.56;5025288;28;20021;-87
2023/11/23 04:29:07;;;;;;;6.25;1.98;;;;;;;9.23;100.00;102345.25;5017401;28;20117;-87
2023/11/23 04:31:33;;;;;;;12.32;3.42;;;;;;;9.22;100.00;102333.03;5022733;28;20064;-87
2023/11/23 04:33:58;;;;;;;4.97;2.75;;;;;;;9.22;100.00;102340.88;5024315;28;20348;-87
2023/11/23 04:36:23;;;;;;;5.85;2.22;;;;;;;9.26;100.00;102340.00;5031762;28;20291;-87
2023/11/23 04:38:49;;;;;;;4.07;2.40;;;;;;;9.32;100.00;102342.53;5026602;28;20045;-87
2023/11/23 04:41:14;;;;;;;9.50;2.55;;;;;;;9.35;100.00;102331.16;5028036;28;20075;-87
2023/11/23 04:43:40;;;;;;;4.85;2.38;;;;;;;9.38;100.00;102342.44;5033318;28;20040;-87
2023/11/23 04:46:05;;;;;;;3.38;1.90;;;;;;;9.43;100.00;102334.56;5035313;28;20124;-87
2023/11/23 04:48:31;;;;;;;13.70;2.17;;;;;;;9.44;100.00;102340.63;5022614;28;20104;-87
2023/11/23 04:50:57;;;;;;;7.53;2.60;;;;;;;9.45;100.00;102342.38;5032117;28;20091;-87
2023/11/23 04:53:23;;;;;;;4.85;2.08;;;;;;;9.48;100.00;102342.31;5024083;28;20037;-87
2023/11/23 04:55:48;;;;;;;3.80;2.20;;;;;;;9.50;100.00;102343.19;5020006;28;20115;-87
2023/11/23 04:58:14;;;;;;;5.43;2.22;;;;;;;9.53;100.00;102336.19;5018150;28;20107;-88
2023/11/23 05:00:39;;;;;;;8.77;2.20;;;;;;;9.50;100.00;102338.81;5033828;28;20395;-87
2023/11/23 05:03:05;;;;;;;11.13;3.60;;;;;;;9.45;100.00;102337.16;5034597;28;20029;-87
2023/11/23 05:05:30;;;;;;;7.55;2.35;;;;;;;9.44;100.00;102341.53;5035777;28;20028;-87
2023/11/23 05:07:55;;;;;;;8.95;2.20;;;;;;;9.41;100.00;102339.78;5035636;28;20393;-87
2023/11/23 05:10:21;;;;;;;4.40;1.90;;;;;;;9.41;100.00;102342.41;5035780;28;20033;-87
2023/11/23 05:12:46;;;;;;;6.22;2.17;;;;;;;9.43;100.00;102326.72;5035807;28;20029;-87
2023/11/23 05:15:11;;;;;;;9.43;2.50;;;;;;;9.44;100.00;102323.22;5035860;28;20348;-87
2023/11/23 05:17:37;;;;;;;11.38;2.47;;;;;;;9.40;100.00;102318.88;5035186;28;20079;-87
2023/11/23 05:20:03;;;;;;;3.97;1.90;;;;;;;9.37;100.00;102324.19;5035782;28;20060;-87
2023/11/23 05:22:29;;;;;;;4.57;1.80;;;;;;;9.38;100.00;102311.06;5035771;28;20044;-87
2023/11/23 05:24:55;;;;;;;6.28;2.08;;;;;;;9.38;100.00;102325.88;5035071;28;20253;-87
2023/11/23 05:27:21;;;;;;;4.95;1.70;;;;;;;9.39;100.00;102327.63;5033422;28;20396;-87
2023/11/23 05:29:46;;;;;;;6.60;2.15;;;;;;;9.35;100.00;102308.50;5033267;28;20041;-87
2023/11/23 05:32:11;;;;;;;9.60;2.35;;;;;;;9.34;100.00;102313.75;5026042;28;20229;-87
2023/11/23 05:34:37;;;;;;;9.88;2.50;;;;;;;9.33;100.00;102306.78;5017208;28;20021;-87
2023/11/23 05:37:02;;;;;;;7.38;1.92;;;;;;;9.30;100.00;102314.69;5029809;28;20048;-87
2023/11/23 05:39:28;;;;;;;8.95;2.25;;;;;;;9.32;100.00;102312.91;5020878;28;20044;-87
2023/11/23 05:41:54;;;;;;;8.60;2.28;;;;;;;9.31;100.00;102308.53;5021057;28;20034;-87
2023/11/23 05:44:19;;;;;;;7.68;2.22;;;;;;;9.34;100.00;102311.13;5017552;28;20052;-87
2023/11/23 05:46:47;;;;;;;7.85;2.38;;;;;;;9.33;100.00;102298.94;5023305;28;20041;-87
2023/11/23 05:49:13;;;;;;;7.40;2.20;;;;;;;9.31;100.00;102306.78;5017497;28;20053;-87
2023/11/23 05:51:39;;;;;;;6.38;2.20;;;;;;;9.32;100.00;102297.22;5022567;28;20029;-87
2023/11/23 05:54:05;;;;;;;11.45;2.28;;;;;;;9.31;100.00;102304.16;5027023;28;20065;-87
2023/11/23 05:56:30;;;;;;;7.85;2.33;;;;;;;9.32;100.00;102294.59;5027761;28;20375;-87
2023/11/23 05:58:56;;;;;;;11.73;2.53;;;;;;;9.31;100.00;102292.84;5035245;28;20033;-87
2023/11/23 06:01:21;;;;;;;6.15;2.50;;;;;;;9.28;100.00;102287.66;5028299;28;20046;-87
2023/11/23 06:03:46;;;;;;;5.53;2.03;;;;;;;9.29;100.00;102284.16;5024722;28;20041;-87
2023/11/23 06:06:19;;;;;;;8.65;2.35;;;;;;;9.27;100.00;102284.19;5025300;28;20049;-87
2023/11/23 06:08:45;;;;;;;10.60;2.47;;;;;;;9.23;100.00;102282.50;5034010;28;20037;-87
2023/11/23 06:11:10;;;;;;;6.00;2.03;;;;;;;9.23;100.00;102282.50;5035140;28;20045;-87
2023/11/23 06:13:36;;;;;;;9.65;2.15;;;;;;;9.26;100.00;102286.81;5025418;28;20287;-87
2023/11/23 06:16:01;;;;;;;7.35;2.25;;;;;;;9.27;100.00;102283.31;5034554;28;20037;-87
2023/11/23 06:18:27;;;;;;;11.13;2.50;;;;;;;9.27;100.00;102289.41;5019233;28;20113;-87
2023/11/23 06:20:53;;;;;;;8.18;2.00;;;;;;;9.30;100.00;102289.38;5032994;28;20383;-87
2023/11/23 06:23:20;;;;;;;9.13;2.28;;;;;;;9.30;100.00;102285.91;5029077;28;20048;-87
2023/11/23 06:25:45;;;;;;;7.80;2.20;;;;;;;9.28;100.00;102285.94;5030053;28;20036;-87
2023/11/23 06:28:10;;;;;;;7.05;2.70;;;;;;;9.28;100.00;102285.03;5032989;28;20025;-87
2023/11/23 06:30:36;;;;;;;9.60;2.42;;;;;;;9.30;100.00;102283.31;5033788;28;20052;-87
2023/11/23 06:33:02;;;;;;;11.60;2.70;;;;;;;9.25;100.00;102270.28;5032688;28;20037;-87
2023/11/23 06:35:27;;;;;;;9.95;2.55;;;;;;;9.26;100.00;102279.84;5034975;28;20097;-87
2023/11/23 06:37:52;;;;;;;13.20;3.00;;;;;;;9.25;100.00;102274.66;5038496;28;20033;-87
2023/11/23 06:40:18;;;;;;;12.27;2.47;;;;;;;9.25;100.00;102264.19;5038632;28;20472;-87
2023/11/23 06:42:43;;;;;;;5.30;1.75;;;;;;;9.28;100.00;102267.63;5036312;28;20033;-87
2023/11/23 06:45:13;;;;;;;7.47;2.00;;;;;;;9.29;100.00;102265.88;5037007;28;20029;-87
2023/11/23 06:47:39;;;;;;;11.10;2.05;;;;;;;9.26;100.00;102269.41;5029264;28;20044;-87
2023/11/23 06:50:05;;;;;;;5.60;1.73;;;;;;;9.28;100.00;102270.25;5032328;28;20198;-87
2023/11/23 06:52:31;;;;;;;7.32;2.30;;;;;;;9.27;100.00;102276.34;5037859;28;20033;-87
2023/11/23 06:54:56;;;;;;;9.02;2.90;;;;;;;9.27;100.00;102271.13;5036074;28;20056;-87
2023/11/23 06:57:22;;;;;;;7.50;2.58;;;;;;;9.25;100.00;102270.28;5024374;28;20043;-87
2023/11/23 06:59:48;;;;;;;7.70;2.03;;;;;;;9.27;100.00;102267.66;5021896;28;20121;-87
2023/11/23 07:02:13;;;;;;;8.27;2.47;;;;;;;9.23;100.00;102264.19;5023043;28;20080;-87
2023/11/23 07:04:40;;;;;;;9.38;2.30;;;;;;;9.23;100.00;102264.19;5029808;28;20079;-87
2023/11/23 07:07:06;;;;;;;12.40;2.38;;;;;;;9.25;100.00;102265.03;5020060;28;20034;-87
2023/11/23 07:09:32;;;;;;;8.52;2.20;;;;;;;9.28;100.00;102266.75;5024725;28;20218;-87
2023/11/23 07:11:58;;;;;;;10.25;2.38;;;;;;;9.28;100.00;102257.16;5025245;28;20033;-87
2023/11/23 07:14:23;;;;;;;6.57;2.08;;;;;;;9.30;100.00;102258.00;5030296;28;20041;-87
2023/11/23 07:16:51;;;;;;;4.43;2.03;;;;;;;9.30;100.00;102258.00;5028955;28;20388;-87
2023/11/23 07:19:18;;;;;;;11.05;2.47;;;;;;;9.30;100.00;102268.47;5025695;28;20108;-87
2023/11/23 07:21:44;;;;;;;5.13;2.35;;;;;;;9.29;100.00;102266.72;5024451;28;20084;-87
2023/11/23 07:24:10;;;;;;;13.23;2.67;;;;;;;9.30;100.00;102278.94;5019386;28;20249;-87
2023/11/23 07:26:35;;;;;;;18.10;2.60;;;;;;;9.29;100.00;102286.78;5028072;28;20353;-87
2023/11/23 07:29:00;;;;;;;14.30;2.67;;;;;;;9.28;100.00;102285.94;5023382;28;20081;-87
2023/11/23 07:31:26;;;;;;;14.05;3.10;;;;;;;9.29;100.00;102285.03;5027495;28;20042;-87
2023/11/23 07:33:52;;;;;;;9.23;2.50;;;;;;;9.31;100.00;102291.09;5025099;28;20240;-87
2023/11/23 07:36:18;;;;;;;5.40;2.08;;;;;;;9.33;100.00;102289.34;5027870;28;20026;-87
2023/11/23 07:38:44;;;;;;;13.20;2.35;;;;;;;9.31;100.00;102285.00;5027603;28;20033;-87
2023/11/23 07:41:11;;;;;;;14.10;2.70;;;;;;;9.31;100.00;102274.56;5020611;28;20084;-87
2023/11/23 07:43:37;;;;;;;5.80;2.55;;;;;;;9.32;100.00;102271.94;5017317;28;20034;-87
2023/11/23 07:46:02;;;;;;;8.93;2.25;;;;;;;9.35;100.00;102279.75;5033784;28;20566;-87
2023/11/23 07:48:29;;;;;;;6.47;2.22;;;;;;;9.36;100.00;102273.59;5025370;28;20048;-87
2023/11/23 07:50:55;;;;;;;5.20;1.45;;;;;;;9.38;100.00;102264.00;5037306;28;20223;-87
2023/11/23 07:53:21;;;;;;;5.15;1.65;;;;;;;9.40;100.00;102270.09;5037008;28;20399;-87
2023/11/23 07:55:46;;;;;;;2.20;1.65;;;;;;;9.39;100.00;102268.34;5034546;28;20041;-87
2023/11/23 07:58:12;;;;;;;3.85;1.92;;;;;;;9.43;100.00;102273.56;5029773;28;20345;-87
2023/11/23 08:00:38;;;;;;;7.13;2.20;;;;;;;9.44;100.00;102251.72;5023435;28;20040;-87
2023/11/23 08:03:04;;;;;;;14.85;2.95;;;;;;;9.48;100.00;102258.63;5033887;28;20069;-87
2023/11/23 08:05:30;;;;;;;12.02;2.30;;;;;;;9.48;100.00;102264.75;5023048;28;20037;-87
2023/11/23 08:07:56;;;;;;;10.55;2.78;;;;;;;9.52;100.00;102261.22;5028811;28;20308;-87
2023/11/23 08:10:21;;;;;;;8.95;2.03;;;;;;;9.54;100.00;102258.56;5031766;28;20363;-87
2023/11/23 08:12:47;;;;;;;13.52;3.20;;;;;;;9.55;100.00;102252.44;5035501;28;20056;-87
2023/11/23 08:15:12;;;;;;;12.57;2.58;;;;;;;9.55;100.00;102255.06;5034225;28;20039;-87
2023/11/23 08:17:38;;;;;;;10.48;2.22;;;;;;;9.58;100.00;102252.41;5023125;28;20128;-87
2023/11/23 08:20:08;;;;;;;13.43;2.47;;;;;;;9.61;100.00;102260.22;5029360;28;20037;-87
2023/11/23 08:22:38;;;;;;;10.68;2.30;;;;;;;9.63;100.00;102257.59;5024231;28;20234;-87
2023/11/23 08:25:05;;;;;;;7.00;2.15;;;;;;;9.66;100.00;102260.13;5024787;28;20033;-87
2023/11/23 08:27:31;;;;;;;5.53;2.30;;;;;;;9.70;100.00;102236.53;5025857;28;20049;-87
2023/11/23 08:29:56;;;;;;;11.55;2.17;;;;;;;9.71;100.00;102225.19;5023225;28;20033;-87
2023/11/23 08:32:22;;;;;;;15.82;3.03;;;;;;;9.71;100.00;102217.34;5022872;28;20048;-87
2023/11/23 08:34:52;;;;;;;8.32;2.00;;;;;;;9.73;100.00;102207.72;5025094;28;20040;-87
2023/11/23 08:37:17;;;;;;;10.68;2.45;;;;;;;9.74;100.00;102213.81;5023606;28;20036;-87
2023/11/23 08:39:44;;;;;;;6.53;1.80;;;;;;;9.75;100.00;102216.41;5026550;28;20037;-87
2023/11/23 08:42:10;;;;;;;4.00;2.13;;;;;;;9.76;100.00;102214.66;5025897;28;20076;-87
2023/11/23 08:44:37;;;;;;;3.47;1.88;;;;;;;9.79;100.00;102228.56;5026788;28;20037;-87
2023/11/23 08:47:03;;;;;;;8.65;1.88;;;;;;;9.81;100.00;102225.91;5028163;28;20381;-87
2023/11/23 08:49:29;;;;;;;12.63;2.28;;;;;;;9.80;100.00;102224.19;5024965;28;20050;-87
2023/11/23 08:51:54;;;;;;;10.38;2.00;;;;;;;9.83;100.00;102223.28;5027103;28;20321;-87
2023/11/23 08:54:20;;;;;;;4.45;1.80;;;;;;;9.85;100.00;102211.03;5032086;28;20041;-87
2023/11/23 08:56:46;;;;;;;6.28;1.65;;;;;;;9.88;100.00;102218.84;5024271;28;20084;-87
2023/11/23 08:59:12;;;;;;;6.50;1.83;;;;;;;9.91;100.00;102224.00;5021908;28;20037;-87
2023/11/23 09:01:37;;;;;;;15.07;3.42;;;;;;;9.90;100.00;102225.78;5019490;28;20040;-87
2023/11/23 09:04:04;;;;;;;8.50;2.58;;;;;;;9.93;100.00;102222.25;5022449;28;20102;-87
2023/11/23 09:06:29;;;;;;;6.97;2.25;;;;;;;9.95;100.00;102208.25;5023248;28;20037;-87
2023/11/23 09:08:54;;;;;;;4.80;2.05;;;;;;;9.99;100.00;102207.31;5021938;28;20061;-87
2023/11/23 09:11:20;;;;;;;5.65;2.10;;;;;;;10.01;100.00;102195.97;5023891;28;20080;-87
2023/11/23 09:13:45;;;;;;;13.68;2.53;;;;;;;10.05;100.00;102197.63;5021830;28;20411;-87
2023/11/23 09:16:13;;;;;;;3.58;1.60;;;;;;;10.08;100.00;102203.69;5022057;28;20033;-87
2023/11/23 09:18:39;;;;;;;7.00;1.95;;;;;;;10.11;100.00;102210.59;5020498;28;20045;-87
2023/11/23 09:21:05;;;;;;;5.85;1.80;;;;;;;10.14;100.00;102221.03;5024692;28;20109;-87
2023/11/23 09:23:31;;;;;;;3.78;1.70;;;;;;;10.14;100.00;102224.50;5030364;28;20372;-87
2023/11/23 09:25:56;;;;;;;9.18;2.20;;;;;;;10.16;100.00;102220.09;5030128;28;20037;-87
2023/11/23 09:28:22;;;;;;;9.60;1.92;;;;;;;10.17;100.00;102203.53;5034874;28;20036;-87
2023/11/23 09:30:48;;;;;;;3.95;2.08;;;;;;;10.19;100.00;102196.50;5029730;28;20074;-87
2023/11/23 09:33:13;;;;;;;3.60;1.40;;;;;;;10.20;100.00;102199.97;5033987;28;20025;-87
2023/11/23 09:35:39;;;;;;;4.00;1.70;;;;;;;10.24;100.00;102196.44;5024643;28;20041;-87
2023/11/23 09:38:06;;;;;;;7.93;1.98;;;;;;;10.27;100.00;102191.13;5033644;28;20241;-87
2023/11/23 09:40:32;;;;;;;4.82;1.58;;;;;;;10.30;100.00;102201.56;5032134;28;20261;-87
2023/11/23 09:42:58;;;;;;;8.90;1.55;;;;;;;10.32;100.00;102185.84;5030866;28;20044;-87
2023/11/23 09:45:24;;;;;;;4.93;1.70;;;;;;;10.35;100.00;102183.16;5030826;28;20131;-87
2023/11/23 09:47:51;;;;;;;12.63;2.75;;;;;;;10.35;100.00;102175.28;5026770;28;20105;-87
2023/11/23 09:50:18;;;;;;;6.53;1.65;;;;;;;10.37;100.00;102163.06;5027270;28;20041;-87
2023/11/23 09:52:46;;;;;;;8.02;1.80;;;;;;;10.43;100.00;102149.00;5034324;28;20221;-87
2023/11/23 09:55:16;;;;;;;10.75;2.58;;;;;;;10.46;100.00;102152.41;5027304;28;20128;-87
2023/11/23 09:57:45;;;;;;;8.65;1.90;;;;;;;10.47;100.00;102161.97;5020605;28;20049;-87
2023/11/23 10:00:14;;;;;;;6.28;1.70;;;;;;;10.50;100.00;102175.03;5031867;28;20041;-87
2023/11/23 10:02:43;;;;;;;;;;;;;;;10.51;100.00;102163.66;5025803;28;20264;-87
2023/11/23 10:05:13;;;;;;;5.93;1.65;;;;;;;10.53;100.00;102164.50;5025053;28;20204;-87
2023/11/23 10:07:40;;;;;;;8.40;2.13;;;;;;;10.59;100.00;102173.09;5021374;28;20041;-87
2023/11/23 10:10:06;;;;;;;8.40;1.83;;;;;;;10.60;100.00;102180.09;5032319;28;20112;-87
2023/11/23 10:12:35;;;;;;;5.55;1.77;;;;;;;10.61;100.00;102182.69;5030373;28;20275;-87
2023/11/23 10:15:01;;;;;;;7.43;2.88;;;;;;;10.64;100.00;102174.78;5029557;28;20332;-87
2023/11/23 10:17:26;;;;;;;3.92;1.50;;;;;;;10.66;100.00;102179.97;5030383;28;20092;-87
2023/11/23 10:19:52;;;;;;;5.20;1.40;;;;;;;10.65;100.00;102173.88;5033881;28;20259;-87
2023/11/23 10:22:17;;;;;;;11.98;2.33;;;;;;;10.65;100.00;102167.75;5031571;28;20041;-87
2023/11/23 10:24:49;;;;;;;6.28;1.95;;;;;;;10.64;100.00;102164.28;5029013;28;20259;-87
2023/11/23 10:27:19;;;;;;;4.72;1.80;;;;;;;10.66;100.00;102167.75;5030477;28;20034;-87
2023/11/23 10:29:46;;;;;;;8.80;2.35;;;;;;;10.68;100.00;102176.44;5023267;28;20529;-87
2023/11/23 10:32:15;;;;;;;7.28;1.98;;;;;;;10.70;100.00;102176.41;5030871;28;20219;-87
2023/11/23 10:34:41;;;;;;;8.70;1.80;;;;;;;10.70;100.00;102164.16;5029872;28;20053;-87
2023/11/23 10:37:08;;;;;;;3.97;1.52;;;;;;;10.70;100.00;102163.31;5022583;28;20049;-87
2023/11/23 10:39:34;;;;;;;7.10;1.80;;;;;;;10.71;100.00;102162.41;5032012;28;20033;-87
2023/11/23 10:41:59;;;;;;;8.43;1.85;;;;;;;10.71;100.00;102144.94;5030098;28;20037;-87
2023/11/23 10:44:29;;;;;;;6.85;2.10;;;;;;;10.73;100.00;102145.75;5028339;28;20229;-87
2023/11/23 10:47:03;;;;;;;9.73;2.80;;;;;;;10.74;100.00;102151.84;5030950;28;20037;-87
2023/11/23 10:49:32;;;;;;;8.60;1.70;;;;;;;10.76;100.00;102131.72;5029912;28;20050;-87
2023/11/23 10:51:59;;;;;;;6.35;1.65;;;;;;;10.75;100.00;102122.13;5030566;28;20057;-87
2023/11/23 10:54:24;;;;;;;4.57;1.75;;;;;;;10.78;100.00;102124.69;5030798;28;20104;-87
2023/11/23 10:56:50;;;;;;;11.18;1.98;;;;;;;10.76;100.00;102119.47;5032267;28;20353;-87
2023/11/23 10:59:20;;;;;;;6.40;2.28;;;;;;;10.78;100.00;102108.97;5034098;28;20045;-87
2023/11/23 11:01:47;;;;;;;12.32;2.60;;;;;;;10.80;100.00;102091.44;5030593;28;20339;-87
2023/11/23 11:04:13;;;;;;;6.65;1.80;;;;;;;10.82;100.00;102089.66;5026157;28;20041;-87
2023/11/23 11:06:39;;;;;;;5.38;1.98;;;;;;;10.82;100.00;102087.03;5023284;28;20041;-87
2023/11/23 11:09:14;;;;;;;3.05;1.42;;;;;;;10.84;100.00;102085.28;5024112;28;20387;-87
2023/11/23 11:11:43;;;;;;;6.65;1.92;;;;;;;10.86;100.00;102072.09;5029628;28;20037;-87
2023/11/23 11:14:13;;;;;;;16.17;2.53;;;;;;;10.87;100.00;102058.13;5034279;28;20044;-87
2023/11/23 11:16:39;;;;;;;6.88;2.10;;;;;;;10.89;100.00;102056.31;5030980;28;20068;-87